sensor_id;sensor_type;location;lat;lon;timestamp;P1;durP1;ratioP1;P2;durP2;ratioP2
12459;SDS011;6295;49.452;8.466;2023-09-19T06:14:53;3.17;;;2.40;;
12459;SDS011;6295;49.452;8.466;2023-09-19T06:18:55;5.23;;;2.50;;
12459;SDS011;6295;49.452;8.466;2023-09-19T06:22:57;4.70;;;2.67;;
12459;SDS011;6295;49.452;8.466;2023-09-19T06:27:02;4.17;;;2.50;;
12459;SDS011;6295;49.452;8.466;2023-09-19T06:31:06;4.97;;;2.67;;
12459;SDS011;6295;49.452;8.466;2023-09-19T06:35:10;3.83;;;2.57;;
12459;SDS011;6295;49.452;8.466;2023-09-19T06:39:14;3.50;;;2.50;;
12459;SDS011;6295;49.452;8.466;2023-09-19T06:43:17;4.13;;;2.20;;
12459;SDS011;6295;49.452;8.466;2023-09-19T06:47:21;2.50;;;2.20;;
12459;SDS011;6295;49.452;8.466;2023-09-19T06:51:26;4.77;;;2.60;;
12459;SDS011;6295;49.452;8.466;2023-09-19T06:55:29;4.13;;;2.27;;
12459;SDS011;6295;49.452;8.466;2023-09-19T06:59:32;5.07;;;2.30;;
12459;SDS011;6295;49.452;8.466;2023-09-19T07:03:37;4.67;;;2.30;;
12459;SDS011;6295;49.452;8.466;2023-09-19T07:07:40;2.90;;;2.40;;
12459;SDS011;6295;49.452;8.466;2023-09-19T07:11:44;2.67;;;2.27;;
12459;SDS011;6295;49.452;8.466;2023-09-19T07:15:48;4.37;;;2.50;;
12459;SDS011;6295;49.452;8.466;2023-09-19T07:19:51;5.50;;;2.50;;
12459;SDS011;6295;49.452;8.466;2023-09-19T07:23:54;3.47;;;2.50;;
12459;SDS011;6295;49.452;8.466;2023-09-19T07:27:56;5.20;;;2.60;;
12459;SDS011;6295;49.452;8.466;2023-09-19T07:32:01;3.97;;;2.43;;
12459;SDS011;6295;49.452;8.466;2023-09-19T07:36:09;3.50;;;2.50;;
12459;SDS011;6295;49.452;8.466;2023-09-19T07:40:15;4.20;;;2.57;;
12459;SDS011;6295;49.452;8.466;2023-09-19T07:44:21;3.53;;;2.20;;
12459;SDS011;6295;49.452;8.466;2023-09-19T07:48:26;3.20;;;2.20;;
12459;SDS011;6295;49.452;8.466;2023-09-19T07:52:30;2.83;;;2.17;;
12459;SDS011;6295;49.452;8.466;2023-09-19T07:56:33;3.10;;;2.50;;
12459;SDS011;6295;49.452;8.466;2023-09-19T08:00:35;2.60;;;2.20;;
12459;SDS011;6295;49.452;8.466;2023-09-19T08:04:39;3.97;;;2.13;;
12459;SDS011;6295;49.452;8.466;2023-09-19T08:08:42;4.60;;;2.30;;
12459;SDS011;6295;49.452;8.466;2023-09-19T08:12:45;3.33;;;1.80;;
12459;SDS011;6295;49.452;8.466;2023-09-19T08:16:49;3.57;;;2.00;;
12459;SDS011;6295;49.452;8.466;2023-09-19T08:20:52;3.10;;;1.87;;
12459;SDS011;6295;49.452;8.466;2023-09-19T08:24:56;2.60;;;2.00;;
12459;SDS011;6295;49.452;8.466;2023-09-19T08:28:58;4.40;;;2.07;;
12459;SDS011;6295;49.452;8.466;2023-09-19T08:33:06;2.47;;;2.13;;
12459;SDS011;6295;49.452;8.466;2023-09-19T08:37:11;3.97;;;2.40;;
12459;SDS011;6295;49.452;8.466;2023-09-19T08:41:15;5.57;;;3.23;;
12459;SDS011;6295;49.452;8.466;2023-09-19T08:45:19;3.40;;;2.73;;
12459;SDS011;6295;49.452;8.466;2023-09-19T08:49:24;3.70;;;2.70;;
12459;SDS011;6295;49.452;8.466;2023-09-19T08:53:39;4.73;;;3.27;;
12459;SDS011;6295;49.452;8.466;2023-09-19T08:57:47;4.40;;;3.47;;
12459;SDS011;6295;49.452;8.466;2023-09-19T09:01:53;4.37;;;2.83;;
12459;SDS011;6295;49.452;8.466;2023-09-19T09:05:56;5.57;;;2.93;;
12459;SDS011;6295;49.452;8.466;2023-09-19T09:10:02;5.10;;;2.50;;
12459;SDS011;6295;49.452;8.466;2023-09-19T09:14:06;3.07;;;2.40;;
12459;SDS011;6295;49.452;8.466;2023-09-19T09:18:08;3.87;;;2.03;;
12459;SDS011;6295;49.452;8.466;2023-09-19T09:22:10;3.33;;;2.30;;
12459;SDS011;6295;49.452;8.466;2023-09-19T09:26:13;4.17;;;2.40;;
12459;SDS011;6295;49.452;8.466;2023-09-19T09:34:37;3.30;;;2.00;;
12459;SDS011;6295;49.452;8.466;2023-09-19T09:38:44;2.07;;;1.80;;
12459;SDS011;6295;49.452;8.466;2023-09-19T09:42:50;3.30;;;1.80;;
12459;SDS011;6295;49.452;8.466;2023-09-19T09:47:00;3.43;;;1.97;;
12459;SDS011;6295;49.452;8.466;2023-09-19T09:51:17;3.70;;;2.07;;
12459;SDS011;6295;49.452;8.466;2023-09-19T09:55:34;3.60;;;2.07;;
12459;SDS011;6295;49.452;8.466;2023-09-19T10:00:01;4.30;;;2.00;;
12459;SDS011;6295;49.452;8.466;2023-09-19T10:04:30;3.63;;;1.83;;
12459;SDS011;6295;49.452;8.466;2023-09-19T10:08:57;2.63;;;1.97;;
12459;SDS011;6295;49.452;8.466;2023-09-19T10:13:05;2.73;;;2.17;;
12459;SDS011;6295;49.452;8.466;2023-09-19T10:17:14;2.90;;;1.70;;
12459;SDS011;6295;49.452;8.466;2023-09-19T10:21:26;3.90;;;1.80;;
12459;SDS011;6295;49.452;8.466;2023-09-19T10:25:30;4.27;;;2.03;;
12459;SDS011;6295;49.452;8.466;2023-09-19T10:29:32;3.53;;;2.00;;
12459;SDS011;6295;49.452;8.466;2023-09-19T10:33:37;2.97;;;1.80;;
12459;SDS011;6295;49.452;8.466;2023-09-19T10:37:43;2.80;;;1.70;;
12459;SDS011;6295;49.452;8.466;2023-09-19T10:41:51;5.37;;;1.97;;
12459;SDS011;6295;49.452;8.466;2023-09-19T10:46:01;5.13;;;2.07;;
12459;SDS011;6295;49.452;8.466;2023-09-19T10:50:06;3.03;;;1.80;;
12459;SDS011;6295;49.452;8.466;2023-09-19T10:54:15;3.47;;;1.70;;
12459;SDS011;6295;49.452;8.466;2023-09-19T10:58:24;2.50;;;1.50;;
12459;SDS011;6295;49.452;8.466;2023-09-19T11:02:28;3.27;;;1.80;;
12459;SDS011;6295;49.452;8.466;2023-09-19T11:06:31;2.50;;;1.73;;
12459;SDS011;6295;49.452;8.466;2023-09-19T11:10:47;3.00;;;1.50;;
12459;SDS011;6295;49.452;8.466;2023-09-19T11:14:51;2.63;;;1.70;;
12459;SDS011;6295;49.452;8.466;2023-09-19T11:18:56;1.97;;;1.70;;
12459;SDS011;6295;49.452;8.466;2023-09-19T11:23:20;2.00;;;1.73;;
12459;SDS011;6295;49.452;8.466;2023-09-19T11:27:27;2.63;;;1.63;;
12459;SDS011;6295;49.452;8.466;2023-09-19T11:36:01;2.90;;;1.70;;
12459;SDS011;6295;49.452;8.466;2023-09-19T11:40:07;2.27;;;1.73;;
12459;SDS011;6295;49.452;8.466;2023-09-19T11:44:34;4.13;;;1.97;;
12459;SDS011;6295;49.452;8.466;2023-09-19T11:48:38;2.23;;;1.73;;
12459;SDS011;6295;49.452;8.466;2023-09-19T11:52:41;3.10;;;1.83;;
12459;SDS011;6295;49.452;8.466;2023-09-19T11:56:44;3.43;;;1.70;;
12459;SDS011;6295;49.452;8.466;2023-09-19T12:00:54;3.60;;;1.80;;
12459;SDS011;6295;49.452;8.466;2023-09-19T12:05:00;3.87;;;1.77;;
12459;SDS011;6295;49.452;8.466;2023-09-19T12:09:03;3.33;;;2.07;;
12459;SDS011;6295;49.452;8.466;2023-09-19T12:13:15;2.70;;;1.90;;
12459;SDS011;6295;49.452;8.466;2023-09-19T12:17:19;3.53;;;1.93;;
12459;SDS011;6295;49.452;8.466;2023-09-19T12:21:24;2.10;;;1.50;;
12459;SDS011;6295;49.452;8.466;2023-09-19T12:25:40;4.80;;;1.87;;
12459;SDS011;6295;49.452;8.466;2023-09-19T12:29:48;2.63;;;1.67;;
12459;SDS011;6295;49.452;8.466;2023-09-19T12:33:56;3.90;;;1.70;;
12459;SDS011;6295;49.452;8.466;2023-09-19T12:37:59;2.77;;;1.80;;
12459;SDS011;6295;49.452;8.466;2023-09-19T12:42:01;3.97;;;1.93;;
12459;SDS011;6295;49.452;8.466;2023-09-19T12:46:09;2.50;;;1.80;;
12459;SDS011;6295;49.452;8.466;2023-09-19T12:50:12;3.03;;;1.90;;
12459;SDS011;6295;49.452;8.466;2023-09-19T12:54:18;2.87;;;1.77;;
12459;SDS011;6295;49.452;8.466;2023-09-19T12:58:22;2.60;;;1.80;;
12459;SDS011;6295;49.452;8.466;2023-09-19T13:02:26;3.60;;;1.70;;
12459;SDS011;6295;49.452;8.466;2023-09-19T13:06:36;3.10;;;1.70;;
12459;SDS011;6295;49.452;8.466;2023-09-19T13:15:10;3.27;;;2.13;;
12459;SDS011;6295;49.452;8.466;2023-09-19T13:19:34;2.13;;;1.70;;
12459;SDS011;6295;49.452;8.466;2023-09-19T13:23:43;3.90;;;1.87;;
12459;SDS011;6295;49.452;8.466;2023-09-19T13:27:45;2.57;;;1.90;;
12459;SDS011;6295;49.452;8.466;2023-09-19T13:31:52;2.87;;;1.77;;
12459;SDS011;6295;49.452;8.466;2023-09-19T13:35:54;2.00;;;1.70;;
12459;SDS011;6295;49.452;8.466;2023-09-19T13:39:58;2.97;;;1.77;;
12459;SDS011;6295;49.452;8.466;2023-09-19T13:44:00;2.30;;;1.80;;
12459;SDS011;6295;49.452;8.466;2023-09-19T13:48:03;2.27;;;1.87;;
12459;SDS011;6295;49.452;8.466;2023-09-19T13:52:05;2.53;;;1.70;;
12459;SDS011;6295;49.452;8.466;2023-09-19T13:56:09;3.00;;;1.80;;
12459;SDS011;6295;49.452;8.466;2023-09-19T14:00:11;2.50;;;1.90;;
12459;SDS011;6295;49.452;8.466;2023-09-19T14:04:16;2.87;;;1.70;;
12459;SDS011;6295;49.452;8.466;2023-09-19T14:08:18;3.07;;;1.70;;
12459;SDS011;6295;49.452;8.466;2023-09-19T14:12:22;2.20;;;1.60;;
12459;SDS011;6295;49.452;8.466;2023-09-19T14:16:24;2.13;;;1.70;;
12459;SDS011;6295;49.452;8.466;2023-09-19T14:20:30;3.27;;;1.80;;
12459;SDS011;6295;49.452;8.466;2023-09-19T14:24:32;2.73;;;1.60;;
12459;SDS011;6295;49.452;8.466;2023-09-19T14:28:36;2.67;;;1.73;;
12459;SDS011;6295;49.452;8.466;2023-09-19T14:32:38;2.37;;;1.80;;
12459;SDS011;6295;49.452;8.466;2023-09-19T14:36:41;2.43;;;1.80;;
12459;SDS011;6295;49.452;8.466;2023-09-19T14:40:43;2.43;;;1.73;;
12459;SDS011;6295;49.452;8.466;2023-09-19T14:44:47;2.30;;;1.50;;
12459;SDS011;6295;49.452;8.466;2023-09-19T14:48:50;3.23;;;1.90;;
12459;SDS011;6295;49.452;8.466;2023-09-19T14:52:52;1.70;;;1.60;;
12459;SDS011;6295;49.452;8.466;2023-09-19T14:56:54;2.60;;;1.77;;
12459;SDS011;6295;49.452;8.466;2023-09-19T15:01:07;2.20;;;1.70;;
12459;SDS011;6295;49.452;8.466;2023-09-19T15:05:14;3.17;;;1.73;;
12459;SDS011;6295;49.452;8.466;2023-09-19T15:09:17;2.00;;;1.70;;
12459;SDS011;6295;49.452;8.466;2023-09-19T15:13:20;1.90;;;1.70;;
12459;SDS011;6295;49.452;8.466;2023-09-19T15:17:25;2.43;;;1.60;;
12459;SDS011;6295;49.452;8.466;2023-09-19T15:21:27;2.30;;;1.67;;
12459;SDS011;6295;49.452;8.466;2023-09-19T15:25:29;2.17;;;1.77;;
12459;SDS011;6295;49.452;8.466;2023-09-19T15:29:32;2.50;;;1.70;;
12459;SDS011;6295;49.452;8.466;2023-09-19T15:33:35;2.57;;;1.80;;
12459;SDS011;6295;49.452;8.466;2023-09-19T15:37:38;3.63;;;1.87;;
12459;SDS011;6295;49.452;8.466;2023-09-19T15:41:41;2.37;;;1.70;;
12459;SDS011;6295;49.452;8.466;2023-09-19T15:45:47;2.60;;;2.00;;
12459;SDS011;6295;49.452;8.466;2023-09-19T15:49:51;1.90;;;1.63;;
12459;SDS011;6295;49.452;8.466;2023-09-19T15:53:54;1.97;;;1.70;;
12459;SDS011;6295;49.452;8.466;2023-09-19T15:58:00;1.97;;;1.50;;
12459;SDS011;6295;49.452;8.466;2023-09-19T16:02:06;1.77;;;1.50;;
12459;SDS011;6295;49.452;8.466;2023-09-19T16:06:10;2.77;;;1.77;;
12459;SDS011;6295;49.452;8.466;2023-09-19T16:10:13;1.77;;;1.63;;
12459;SDS011;6295;49.452;8.466;2023-09-19T16:14:15;3.13;;;1.80;;
12459;SDS011;6295;49.452;8.466;2023-09-19T16:18:18;2.83;;;1.80;;
12459;SDS011;6295;49.452;8.466;2023-09-19T16:22:21;1.60;;;1.50;;
12459;SDS011;6295;49.452;8.466;2023-09-19T16:26:24;2.20;;;1.50;;
12459;SDS011;6295;49.452;8.466;2023-09-19T16:30:26;1.70;;;1.60;;
12459;SDS011;6295;49.452;8.466;2023-09-19T16:34:29;1.63;;;1.53;;
12459;SDS011;6295;49.452;8.466;2023-09-19T16:38:33;2.00;;;1.80;;
12459;SDS011;6295;49.452;8.466;2023-09-19T16:42:35;2.40;;;1.57;;
12459;SDS011;6295;49.452;8.466;2023-09-19T16:46:38;2.20;;;1.70;;
12459;SDS011;6295;49.452;8.466;2023-09-19T16:50:41;2.23;;;1.60;;
12459;SDS011;6295;49.452;8.466;2023-09-19T16:54:46;2.80;;;1.60;;
12459;SDS011;6295;49.452;8.466;2023-09-19T16:58:48;1.83;;;1.70;;
12459;SDS011;6295;49.452;8.466;2023-09-19T17:02:51;2.30;;;1.70;;
12459;SDS011;6295;49.452;8.466;2023-09-19T17:06:57;1.83;;;1.70;;
12459;SDS011;6295;49.452;8.466;2023-09-19T17:11:01;2.00;;;1.80;;
12459;SDS011;6295;49.452;8.466;2023-09-19T17:15:06;2.27;;;1.80;;
12459;SDS011;6295;49.452;8.466;2023-09-19T17:19:09;2.40;;;1.80;;
12459;SDS011;6295;49.452;8.466;2023-09-19T17:23:12;1.90;;;1.80;;
12459;SDS011;6295;49.452;8.466;2023-09-19T17:27:16;1.87;;;1.77;;
12459;SDS011;6295;49.452;8.466;2023-09-19T17:31:19;3.03;;;2.00;;
12459;SDS011;6295;49.452;8.466;2023-09-19T17:35:22;1.80;;;1.70;;
12459;SDS011;6295;49.452;8.466;2023-09-19T17:39:24;2.17;;;1.80;;
12459;SDS011;6295;49.452;8.466;2023-09-19T17:43:30;2.10;;;1.90;;
12459;SDS011;6295;49.452;8.466;2023-09-19T17:47:34;1.83;;;1.70;;
12459;SDS011;6295;49.452;8.466;2023-09-19T17:51:38;2.40;;;1.53;;
12459;SDS011;6295;49.452;8.466;2023-09-19T17:55:42;2.53;;;1.60;;
